Time;durP1;ratioP1;P1;durP2;ratioP2;P2;SDS_P1;SDS_P2;PMS_P1;PMS_P2;Temp;Humidity;BMP_temperature;BMP_pressure;BME280_temperature;BME280_humidity;BME280_pressure;Samples;Min_cycle;Max_cycle;Signal;HPM_P1;HPM_P2
2022/07/03 00:01:43;;;;;;;8.03;6.70;;;;;;;15.43;88.97;101580.03;4918822;29;20041;-82
2022/07/03 00:04:08;;;;;;;7.83;6.40;;;;;;;15.35;89.31;101582.00;4934825;29;21345;-81
2022/07/03 00:06:34;;;;;;;8.70;7.07;;;;;;;15.38;89.10;101588.91;4935165;29;20526;-84
2022/07/03 00:09:00;;;;;;;9.73;7.67;;;;;;;15.36;88.24;101583.66;4935475;29;20110;-82
2022/07/03 00:11:26;;;;;;;10.00;7.70;;;;;;;15.28;88.89;101592.13;4901160;29;20706;-81
2022/07/03 00:13:52;;;;;;;9.00;7.07;;;;;;;15.27;89.34;101589.66;4935319;29;20039;-80
2022/07/03 00:16:17;;;;;;;13.03;7.37;;;;;;;15.19;89.02;101575.22;4901937;29;20086;-81
2022/07/03 00:18:43;;;;;;;16.43;10.50;;;;;;;15.21;89.43;101585.91;4935209;29;20119;-82
2022/07/03 00:21:10;;;;;;;9.50;7.70;;;;;;;15.28;90.02;101580.41;4936186;29;20045;-81
2022/07/03 00:24:01;;;;;;;10.83;8.00;;;;;;;15.30;89.09;101584.56;4918013;29;20189;-80
2022/07/03 00:26:30;;;;;;;9.40;7.60;;;;;;;15.22;89.17;101586.75;4935595;29;20031;-80
2022/07/03 00:28:59;;;;;;;11.33;7.90;;;;;;;15.18;89.67;101595.38;4935976;29;20031;-82
2022/07/03 00:31:25;;;;;;;11.23;8.83;;;;;;;15.02;89.85;101595.97;4936149;29;20045;-81
2022/07/03 00:33:54;;;;;;;10.57;7.87;;;;;;;14.94;90.23;101599.78;4934407;29;20373;-82
2022/07/03 00:36:20;;;;;;;12.37;8.80;;;;;;;14.82;90.63;101596.13;4935305;29;20042;-80
2022/07/03 00:38:46;;;;;;;14.00;9.50;;;;;;;14.83;90.73;101615.00;4935178;29;20043;-83
2022/07/03 00:41:27;;;;;;;12.23;8.03;;;;;;;14.86;90.39;101613.72;4935799;29;20217;-81
2022/07/03 00:43:53;;;;;;;10.50;7.17;;;;;;;14.92;88.22;101612.84;4935248;29;20420;-81
2022/07/03 00:46:21;;;;;;;10.73;7.33;;;;;;;14.97;87.59;101620.34;4917436;29;20110;-82
2022/07/03 00:48:49;;;;;;;9.73;6.77;;;;;;;14.98;86.80;101611.09;4935500;29;20039;-82
2022/07/03 00:51:18;;;;;;;9.23;6.33;;;;;;;15.03;87.02;101606.66;4935165;29;20082;-81
2022/07/03 00:53:47;;;;;;;7.60;6.33;;;;;;;15.09;86.47;101607.66;4935684;29;20151;-81
2022/07/03 00:56:15;;;;;;;9.27;6.73;;;;;;;15.08;86.42;101603.28;4930897;29;20456;-80
2022/07/03 00:58:42;;;;;;;7.57;6.53;;;;;;;15.06;87.12;101608.09;4934364;29;20040;-82
2022/07/03 01:01:11;;;;;;;9.67;7.23;;;;;;;15.07;86.83;101608.94;4915189;29;20051;-80
2022/07/03 01:03:43;;;;;;;9.00;6.80;;;;;;;15.10;86.87;101605.78;4918682;29;20789;-81
2022/07/03 01:06:16;;;;;;;8.43;6.50;;;;;;;15.15;87.38;101608.66;4919592;29;20479;-81
2022/07/03 01:08:51;;;;;;;8.70;7.00;;;;;;;15.09;87.39;101610.38;4934348;29;20240;-80
2022/07/03 01:11:47;;;;;;;9.63;7.80;;;;;;;15.10;87.23;101603.03;4935785;29;20648;-81
2022/07/03 01:14:44;;;;;;;8.03;6.77;;;;;;;15.11;86.66;101602.81;4934768;29;20094;-82
2022/07/03 01:17:26;;;;;;;9.50;6.93;;;;;;;14.97;87.17;101587.59;4933650;28;20170;-81
2022/07/03 01:20:00;;;;;;;11.60;7.40;;;;;;;14.94;87.74;101607.97;4938426;29;20039;-82
2022/07/03 01:22:31;;;;;;;8.48;7.13;;;;;;;14.96;87.87;101607.75;4939388;29;20647;-80
2022/07/03 01:25:14;;;;;;;12.53;7.97;;;;;;;14.99;88.20;101610.88;4919776;29;20031;-82
2022/07/03 01:27:58;;;;;;;10.13;7.80;;;;;;;15.01;87.73;101614.25;4938828;29;20046;-82
2022/07/03 01:30:27;;;;;;;10.60;7.18;;;;;;;15.00;87.89;101612.56;4938507;29;20042;-80
2022/07/03 01:33:05;;;;;;;9.53;7.60;;;;;;;14.98;87.65;101611.09;4938599;29;20042;-80
2022/07/03 01:35:39;;;;;;;11.27;7.70;;;;;;;14.94;87.88;101607.97;4938813;29;20058;-79
2022/07/03 01:38:08;;;;;;;11.98;7.45;;;;;;;14.92;87.89;101604.66;4937805;29;20585;-81
2022/07/03 01:40:36;;;;;;;10.20;7.43;;;;;;;14.92;87.53;101609.25;4938887;29;20034;-80
2022/07/03 01:43:05;;;;;;;10.27;7.40;;;;;;;14.92;87.88;101604.66;4938871;29;20047;-80
2022/07/03 01:45:33;;;;;;;8.73;7.27;;;;;;;14.84;87.84;101603.03;4921484;29;20472;-80
2022/07/03 01:48:00;;;;;;;9.07;7.07;;;;;;;14.78;88.38;101601.22;4922206;29;20070;-80
2022/07/03 01:50:28;;;;;;;9.47;7.73;;;;;;;14.72;88.58;101612.97;4938404;29;20039;-82
2022/07/03 01:52:56;;;;;;;8.00;6.53;;;;;;;14.78;86.48;101609.38;4937401;29;21355;-80
2022/07/03 01:55:22;;;;;;;10.80;7.17;;;;;;;14.74;87.74;101607.31;4937158;29;20053;-81
2022/07/03 01:57:50;;;;;;;9.70;6.97;;;;;;;14.79;87.28;101612.94;4938822;29;20134;-81
2022/07/03 02:00:18;;;;;;;9.77;7.00;;;;;;;14.73;86.57;101611.94;4938128;29;20142;-81
2022/07/03 02:02:53;;;;;;;8.37;6.47;;;;;;;14.70;86.26;101615.13;4922745;29;20061;-80
2022/07/03 02:05:25;;;;;;;10.47;6.90;;;;;;;14.72;85.45;101609.44;4938117;29;20173;-80
2022/07/03 02:08:06;;;;;;;8.20;6.30;;;;;;;14.73;86.06;101605.63;4938093;29;20388;-81
2022/07/03 02:10:39;;;;;;;7.97;6.50;;;;;;;14.62;87.50;101613.44;4938258;29;20066;-83
2022/07/03 02:13:14;;;;;;;10.60;6.67;;;;;;;14.57;88.14;101602.34;4938960;29;20039;-81
2022/07/03 02:15:43;;;;;;;8.33;6.80;;;;;;;14.60;87.27;101601.91;4937757;29;20049;-81
2022/07/03 02:18:22;;;;;;;6.77;6.07;;;;;;;14.42;87.62;101580.84;4920564;29;20039;-81
2022/07/03 02:21:03;;;;;;;9.77;6.90;;;;;;;14.57;87.69;101599.63;4937332;29;20135;-82
2022/07/03 02:23:32;;;;;;;9.00;6.87;;;;;;;14.46;88.43;101595.72;4938170;29;20038;-81
2022/07/03 02:26:05;;;;;;;9.63;6.97;;;;;;;14.44;88.64;101592.38;4938364;29;20035;-80
2022/07/03 02:28:46;;;;;;;12.10;7.17;;;;;;;14.47;88.10;101577.44;4936427;28;20034;-84
2022/07/03 02:31:16;;;;;;;9.73;6.93;;;;;;;14.42;88.03;101594.47;4937471;29;20035;-81
2022/07/03 02:33:44;;;;;;;8.43;7.53;;;;;;;14.38;88.86;101584.25;4937495;29;20134;-82
2022/07/03 02:36:11;;;;;;;11.53;8.00;;;;;;;14.29;87.75;101598.13;4937455;29;20039;-81
2022/07/03 02:38:36;;;;;;;10.13;8.03;;;;;;;14.32;89.33;101600.41;4936015;28;20506;-81
2022/07/03 02:41:23;;;;;;;11.10;8.23;;;;;;;14.31;89.00;101598.75;4936546;29;20062;-81
2022/07/03 02:43:57;;;;;;;10.07;7.80;;;;;;;14.32;88.63;101588.66;4937505;29;20031;-81
2022/07/03 02:46:49;;;;;;;12.05;8.50;;;;;;;14.29;87.78;101589.09;4938006;29;20042;-80
2022/07/03 02:49:29;;;;;;;11.07;8.17;;;;;;;14.18;88.58;101596.94;4937000;29;20709;-81
2022/07/03 02:52:10;;;;;;;11.80;9.00;;;;;;;14.12;89.80;101594.25;4937784;29;20148;-81
2022/07/03 02:54:43;;;;;;;11.67;9.27;;;;;;;14.06;89.27;101598.66;4937917;29;20678;-82
2022/07/03 02:57:09;;;;;;;11.70;8.13;;;;;;;13.96;89.70;101601.84;4925557;29;20030;-81
2022/07/03 02:59:53;;;;;;;14.03;9.10;;;;;;;14.00;90.45;101592.19;4920831;29;20492;-81
2022/07/03 03:02:22;;;;;;;11.65;8.57;;;;;;;13.96;90.70;101595.56;4936432;29;20130;-81
2022/07/03 03:05:01;;;;;;;11.93;8.57;;;;;;;13.95;89.37;101589.28;4937130;29;20486;-81
2022/07/03 03:07:34;;;;;;;11.00;8.53;;;;;;;13.94;90.21;101592.19;4936351;29;20059;-81
2022/07/03 03:10:00;;;;;;;11.53;8.67;;;;;;;13.83;90.69;101596.44;4936754;29;20031;-81
2022/07/03 03:12:36;;;;;;;10.57;8.23;;;;;;;13.81;90.64;101591.19;4937225;29;20715;-81
2022/07/03 03:15:04;;;;;;;12.57;8.77;;;;;;;13.80;90.34;101592.28;4936751;29;20043;-81
2022/07/03 03:17:49;;;;;;;12.63;8.47;;;;;;;13.82;90.28;101595.59;4920874;29;20039;-81
2022/07/03 03:20:18;;;;;;;11.07;8.17;;;;;;;13.81;91.21;101595.81;4936585;29;20047;-80
2022/07/03 03:22:46;;;;;;;10.87;8.53;;;;;;;13.78;91.15;101607.97;4937232;29;20043;-81
2022/07/03 03:25:11;;;;;;;14.17;8.77;;;;;;;13.75;91.64;101604.84;4935656;29;20058;-80
2022/07/03 03:27:37;;;;;;;13.27;9.17;;;;;;;13.61;92.11;101583.13;4937366;29;20043;-80
2022/07/03 03:30:06;;;;;;;13.23;8.87;;;;;;;13.74;92.15;101600.47;4936048;29;20046;-81
2022/07/03 03:32:33;;;;;;;11.67;8.10;;;;;;;13.74;91.82;101608.63;4920739;29;20039;-81
2022/07/03 03:34:59;;;;;;;13.83;8.20;;;;;;;13.77;91.88;101609.03;4935932;29;20564;-81
2022/07/03 03:37:25;;;;;;;10.70;8.40;;;;;;;13.73;92.04;101617.84;4921051;29;20595;-81
2022/07/03 03:39:51;;;;;;;11.90;8.00;;;;;;;13.71;91.77;101620.78;4935059;29;20046;-81
2022/07/03 03:42:16;;;;;;;13.77;7.77;;;;;;;13.76;92.04;101612.81;4936621;28;20039;-82
2022/07/03 03:44:42;;;;;;;9.67;7.37;;;;;;;13.72;91.65;101611.59;4920800;29;20598;-80
2022/07/03 03:47:07;;;;;;;10.10;7.47;;;;;;;13.71;91.90;101614.50;4900814;29;20396;-80
2022/07/03 03:49:33;;;;;;;11.77;7.77;;;;;;;13.78;91.49;101615.34;4936262;29;20062;-81
2022/07/03 03:51:58;;;;;;;9.57;8.27;;;;;;;13.84;91.41;101615.31;4935014;29;20130;-81
2022/07/03 03:54:24;;;;;;;12.20;7.40;;;;;;;13.86;91.41;101617.81;4935802;29;20035;-83
2022/07/03 03:56:49;;;;;;;11.37;7.10;;;;;;;13.89;90.47;101633.72;4936048;29;20143;-84
2022/07/03 03:59:15;;;;;;;10.97;7.23;;;;;;;13.94;90.68;101625.75;4936113;29;20090;-83
2022/07/03 04:01:40;;;;;;;11.13;7.60;;;;;;;13.95;90.70;101610.22;4935407;29;20077;-82
2022/07/03 04:04:06;;;;;;;9.90;7.23;;;;;;;14.02;90.12;101617.34;4935768;29;20039;-83
2022/07/03 04:06:31;;;;;;;9.50;6.93;;;;;;;14.05;90.18;101609.75;4935785;29;20051;-83
2022/07/03 04:08:57;;;;;;;9.60;6.90;;;;;;;14.04;90.30;101595.31;4935180;29;20054;-82
2022/07/03 04:11:22;;;;;;;10.30;6.77;;;;;;;14.09;90.04;101603.69;4935749;29;20122;-83
2022/07/03 04:13:47;;;;;;;12.47;6.97;;;;;;;14.10;89.96;101608.09;4936323;29;20035;-81
2022/07/03 04:16:13;;;;;;;9.63;6.57;;;;;;;14.17;88.89;101608.88;4935528;29;20125;-81
2022/07/03 04:18:38;;;;;;;9.97;6.67;;;;;;;14.19;89.01;101608.66;4935960;29;20067;-81
2022/07/03 04:21:04;;;;;;;10.27;6.50;;;;;;;14.22;89.89;101604.66;4936346;29;20265;-84
2022/07/03 04:23:30;;;;;;;10.40;6.90;;;;;;;14.24;89.31;101605.28;4935885;29;20050;-81
2022/07/03 04:25:55;;;;;;;7.70;6.33;;;;;;;14.27;88.44;101610.31;4934904;29;20035;-81
2022/07/03 04:28:21;;;;;;;9.17;6.30;;;;;;;14.27;88.68;101622.03;4919865;29;20435;-81
2022/07/03 04:30:47;;;;;;;8.50;6.17;;;;;;;14.30;88.01;101618.88;4918401;29;20043;-81
2022/07/03 04:33:12;;;;;;;7.10;6.00;;;;;;;14.28;88.56;101622.84;4936219;29;20042;-82
2022/07/03 04:35:38;;;;;;;9.30;6.37;;;;;;;14.28;88.49;101622.84;4917181;29;20425;-83
2022/07/03 04:38:03;;;;;;;9.90;6.70;;;;;;;14.27;88.79;101624.75;4935427;29;20162;-80
2022/07/03 04:40:29;;;;;;;9.80;7.00;;;;;;;14.30;89.12;101616.13;4919448;29;20050;-81
2022/07/03 04:42:54;;;;;;;8.00;6.90;;;;;;;14.32;88.47;101635.84;4919705;29;20597;-81
2022/07/03 04:45:20;;;;;;;9.03;6.50;;;;;;;14.34;88.52;101627.44;4934537;29;20035;-80
2022/07/03 04:47:45;;;;;;;12.60;7.10;;;;;;;14.42;88.93;101631.81;4935613;29;20035;-80
2022/07/03 04:50:11;;;;;;;11.87;7.00;;;;;;;14.49;88.81;101632.63;4935261;29;20065;-80
2022/07/03 04:52:36;;;;;;;11.40;6.93;;;;;;;14.57;88.09;101628.81;4918813;29;20182;-81
2022/07/03 04:55:02;;;;;;;8.03;6.47;;;;;;;14.64;87.58;101629.63;4934628;29;20239;-81
2022/07/03 04:57:28;;;;;;;10.73;6.57;;;;;;;14.74;87.63;101634.59;4934837;29;20046;-81
2022/07/03 04:59:53;;;;;;;7.57;6.43;;;;;;;14.82;87.16;101640.63;4934264;29;20548;-81
2022/07/03 05:02:19;;;;;;;8.97;5.97;;;;;;;14.84;86.73;101629.47;4934952;29;20051;-81
2022/07/03 05:04:44;;;;;;;8.87;6.10;;;;;;;14.89;85.70;101626.94;4935232;29;20055;-81
2022/07/03 05:07:09;;;;;;;8.07;6.27;;;;;;;14.88;85.87;101633.44;4934638;29;21573;-81
2022/07/03 05:09:35;;;;;;;8.40;5.93;;;;;;;14.92;85.98;101642.00;4935939;29;20047;-80
2022/07/03 05:12:00;;;;;;;6.67;5.70;;;;;;;14.90;85.68;101642.22;4934941;29;21530;-80
2022/07/03 05:14:26;;;;;;;8.37;6.00;;;;;;;14.92;85.39;101642.84;4935189;29;20174;-80
2022/07/03 05:16:51;;;;;;;8.97;5.87;;;;;;;14.93;85.78;101643.69;4934394;29;20043;-80
2022/07/03 05:19:17;;;;;;;8.90;5.63;;;;;;;14.90;85.19;101647.69;4934848;29;20350;-80
2022/07/03 05:21:42;;;;;;;9.37;6.00;;;;;;;14.91;85.25;101649.38;4934526;29;20054;-81
2022/07/03 05:24:07;;;;;;;10.67;6.07;;;;;;;14.94;85.33;101646.19;4934763;29;20523;-80
2022/07/03 05:26:33;;;;;;;8.33;5.90;;;;;;;14.96;85.62;101648.69;4918659;29;20677;-81
2022/07/03 05:28:58;;;;;;;10.50;5.73;;;;;;;14.93;85.24;101650.00;4935384;29;20043;-81
2022/07/03 05:31:24;;;;;;;9.83;6.47;;;;;;;14.99;85.02;101656.44;4934482;29;20487;-80
2022/07/03 05:33:49;;;;;;;8.93;6.03;;;;;;;14.99;85.07;101648.25;4934405;29;20051;-81
2022/07/03 05:36:14;;;;;;;9.80;6.30;;;;;;;15.09;85.23;101658.69;4935164;29;20035;-80
2022/07/03 05:41:24;;;;;;;9.15;5.75;;;;;;;15.17;84.87;101652.94;4934162;29;20054;-80
2022/07/03 05:43:49;;;;;;;11.13;6.20;;;;;;;15.15;84.89;101653.16;4935205;29;20054;-80
2022/07/03 05:46:14;;;;;;;10.50;6.57;;;;;;;15.11;85.27;101642.91;4918373;29;20799;-80
2022/07/03 05:48:40;;;;;;;10.37;6.20;;;;;;;15.15;85.33;101652.31;4934380;29;20035;-81
2022/07/03 05:51:05;;;;;;;11.80;6.60;;;;;;;15.26;85.29;101658.94;4934449;29;20459;-81
2022/07/03 05:53:31;;;;;;;9.93;6.17;;;;;;;15.28;84.22;101651.38;4918422;29;20174;-80
2022/07/03 05:55:58;;;;;;;9.73;6.23;;;;;;;15.41;84.70;101656.72;4934419;29;20185;-82
2022/07/03 05:58:23;;;;;;;11.33;6.20;;;;;;;15.43;83.61;101660.06;4934993;29;20043;-81
2022/07/03 06:00:48;;;;;;;10.67;6.17;;;;;;;15.53;84.65;101657.66;4935178;29;20050;-82
2022/07/03 06:03:14;;;;;;;9.50;6.00;;;;;;;15.66;84.65;101664.88;4933968;29;20071;-82
2022/07/03 06:05:39;;;;;;;10.57;5.90;;;;;;;15.75;85.48;101668.16;4937927;28;20090;-83
2022/07/03 06:08:05;;;;;;;9.53;5.43;;;;;;;15.86;84.48;101664.69;4938405;29;20403;-83
2022/07/03 06:10:31;;;;;;;9.30;5.93;;;;;;;15.98;85.26;101662.03;4920060;29;20407;-83
2022/07/03 06:12:57;;;;;;;10.10;5.50;;;;;;;16.09;84.58;101662.31;4937957;29;20027;-81
2022/07/03 06:15:22;;;;;;;10.50;5.27;;;;;;;16.23;84.70;101663.03;4937983;29;20039;-81
2022/07/03 06:17:47;;;;;;;8.07;4.63;;;;;;;16.33;82.92;101664.16;4937863;29;20448;-82
2022/07/03 06:20:14;;;;;;;8.10;4.60;;;;;;;16.44;82.71;101669.88;4937897;29;20040;-82
2022/07/03 06:22:39;;;;;;;8.53;4.20;;;;;;;16.50;82.11;101675.28;4938077;29;20078;-80
2022/07/03 06:25:05;;;;;;;9.37;4.70;;;;;;;16.65;82.45;101677.59;4937334;29;20053;-82
2022/07/03 06:27:31;;;;;;;9.30;4.60;;;;;;;16.76;82.13;101675.13;4938198;29;20049;-80
2022/07/03 06:29:56;;;;;;;11.47;4.60;;;;;;;16.81;81.52;101665.16;4937868;29;20043;-80
2022/07/03 06:32:21;;;;;;;9.27;4.57;;;;;;;16.92;81.21;101677.25;4921588;29;20081;-80
2022/07/03 06:34:47;;;;;;;9.73;3.90;;;;;;;16.87;81.09;101666.13;4937838;29;20044;-80
2022/07/03 06:37:13;;;;;;;7.60;4.30;;;;;;;16.96;80.47;101672.97;4937335;29;20039;-81
2022/07/03 06:39:38;;;;;;;5.90;3.90;;;;;;;17.04;80.49;101672.63;4937233;29;20126;-82
2022/07/03 06:42:04;;;;;;;8.10;4.30;;;;;;;17.08;80.18;101669.41;4937054;29;20043;-83
2022/07/03 06:44:29;;;;;;;6.80;3.90;;;;;;;17.20;80.39;101675.72;4937315;29;20046;-83
2022/07/03 06:46:55;;;;;;;9.90;4.17;;;;;;;17.20;80.33;101676.59;4936553;29;20042;-84
2022/07/03 06:49:21;;;;;;;8.73;3.80;;;;;;;17.12;80.06;101670.59;4937723;29;20075;-82
2022/07/03 06:51:46;;;;;;;11.40;4.13;;;;;;;17.23;80.90;101672.53;4937687;29;20078;-81
2022/07/03 06:54:12;;;;;;;10.13;4.50;;;;;;;17.42;82.83;101669.69;4936504;29;20046;-82
2022/07/03 06:56:37;;;;;;;9.40;4.13;;;;;;;17.53;81.65;101669.69;4936939;29;20451;-80
2022/07/03 06:59:03;;;;;;;10.23;3.93;;;;;;;17.54;80.18;101654.06;4937463;29;20031;-81
2022/07/03 07:01:28;;;;;;;9.70;4.10;;;;;;;17.68;79.70;101680.16;4936130;29;20698;-81
2022/07/03 07:03:54;;;;;;;6.30;3.63;;;;;;;17.69;78.82;101676.38;4937319;29;20103;-83
2022/07/03 07:06:19;;;;;;;6.87;3.87;;;;;;;17.74;79.17;101674.81;4936725;29;20054;-81
2022/07/03 07:08:45;;;;;;;7.70;3.80;;;;;;;17.78;78.85;101673.25;4937052;29;20031;-81
2022/07/03 07:11:11;;;;;;;8.07;3.83;;;;;;;18.03;79.05;101684.81;4936673;29;20449;-80
2022/07/03 07:13:36;;;;;;;6.97;3.57;;;;;;;18.10;78.22;101661.88;4937680;29;20050;-81
2022/07/03 07:16:01;;;;;;;7.53;3.40;;;;;;;18.23;77.64;101670.66;4936128;28;20039;-81
2022/07/03 07:18:27;;;;;;;7.90;3.30;;;;;;;18.23;76.00;101672.59;4935795;29;20551;-80
2022/07/03 07:20:52;;;;;;;5.97;2.70;;;;;;;18.27;73.75;101675.69;4936279;29;20039;-80
2022/07/03 07:23:18;;;;;;;7.03;2.97;;;;;;;18.30;74.97;101681.50;4937111;29;20031;-81
2022/07/03 07:25:43;;;;;;;5.33;2.60;;;;;;;18.39;73.58;101677.31;4937606;29;20058;-81
2022/07/03 07:28:09;;;;;;;6.20;2.50;;;;;;;18.41;73.49;101679.81;4936641;29;20770;-81
2022/07/03 07:30:34;;;;;;;4.83;2.50;;;;;;;18.51;71.96;101681.94;4945232;29;20497;-80
2022/07/03 07:32:59;;;;;;;4.70;2.40;;;;;;;18.54;71.65;101673.19;4943893;29;20047;-82
2022/07/03 07:35:24;;;;;;;5.93;2.40;;;;;;;18.63;72.45;101682.72;4939439;29;20035;-83
2022/07/03 07:37:50;;;;;;;5.27;2.43;;;;;;;18.64;71.26;101686.28;4936767;29;20035;-81
2022/07/03 07:40:15;;;;;;;5.83;3.03;;;;;;;18.72;70.87;101689.44;4935935;29;20035;-80
2022/07/03 07:42:42;;;;;;;7.45;2.78;;;;;;;18.88;71.44;101687.03;4937026;29;20035;-81
2022/07/03 07:45:09;;;;;;;4.97;2.20;;;;;;;18.89;70.62;101702.44;4935683;29;20138;-82
2022/07/03 07:47:34;;;;;;;7.70;2.67;;;;;;;18.91;69.74;101699.44;4936654;29;20413;-81
2022/07/03 07:50:00;;;;;;;6.70;2.95;;;;;;;18.95;70.58;101695.13;4936575;29;20047;-81
2022/07/03 07:52:25;;;;;;;5.43;2.80;;;;;;;18.97;70.20;101698.44;4936251;29;20391;-82
2022/07/03 07:54:51;;;;;;;5.70;2.95;;;;;;;19.15;71.09;101698.22;4936034;29;20047;-83
2022/07/03 07:57:16;;;;;;;5.23;2.60;;;;;;;19.27;69.16;101689.06;4935546;29;20458;-83
2022/07/03 07:59:41;;;;;;;4.72;2.30;;;;;;;19.50;68.82;101694.38;4936885;29;20038;-83
2022/07/03 08:07:35;;;;;;;5.00;2.58;;;;;;;19.70;67.85;101702.09;4921663;29;20066;-83
2022/07/03 08:10:00;;;;;;;6.90;2.65;;;;;;;19.86;67.24;101697.69;4936464;29;20035;-82
2022/07/03 08:12:25;;;;;;;6.28;2.60;;;;;;;19.78;66.03;101700.00;4934938;29;20035;-82
2022/07/03 08:14:51;;;;;;;6.95;2.80;;;;;;;19.78;66.04;101692.59;4934670;29;20078;-82
2022/07/03 08:17:16;;;;;;;6.65;2.72;;;;;;;20.06;67.70;101705.38;4936209;29;20031;-81
2022/07/03 08:19:41;;;;;;;7.13;2.95;;;;;;;20.32;66.75;101705.72;4934124;29;20042;-82
2022/07/03 08:22:08;;;;;;;6.88;2.50;;;;;;;20.40;66.69;101707.19;4936203;29;20031;-82
2022/07/03 08:24:33;;;;;;;6.35;3.22;;;;;;;20.67;66.45;101700.84;4936002;29;20057;-83
2022/07/03 08:26:59;;;;;;;5.63;2.70;;;;;;;20.80;62.81;101700.47;4933704;28;20054;-81
2022/07/03 08:29:24;;;;;;;6.15;2.80;;;;;;;20.91;62.44;101696.72;4936165;29;20791;-81
2022/07/03 08:31:50;;;;;;;6.63;3.30;;;;;;;21.13;62.35;101714.28;4936408;29;20035;-83
2022/07/03 08:34:16;;;;;;;9.18;3.47;;;;;;;21.08;62.13;101690.28;4934247;29;21485;-81
2022/07/03 08:36:42;;;;;;;5.97;2.90;;;;;;;21.35;61.12;101706.75;4935881;29;20062;-81
2022/07/03 08:39:09;;;;;;;6.47;2.90;;;;;;;21.55;60.51;101711.59;4935797;29;20046;-83
2022/07/03 08:41:36;;;;;;;4.75;3.00;;;;;;;21.75;62.65;101715.63;4939081;29;20387;-83
2022/07/03 08:44:02;;;;;;;5.13;2.83;;;;;;;21.88;61.91;101712.38;4942654;29;20051;-82
2022/07/03 08:46:31;;;;;;;7.35;3.40;;;;;;;21.89;59.64;101710.44;4941243;29;20027;-82
2022/07/03 08:49:34;;;;;;;7.60;3.00;;;;;;;22.37;61.77;101705.75;4954459;29;20090;-81
2022/07/03 08:52:00;;;;;;;9.10;3.22;;;;;;;22.33;58.27;101704.59;4921150;29;20039;-81
2022/07/03 08:54:26;;;;;;;3.92;2.20;;;;;;;22.69;55.48;101707.47;4955386;29;20035;-83
2022/07/03 08:56:51;;;;;;;6.35;2.20;;;;;;;22.60;54.40;101703.59;4938441;29;20030;-82
2022/07/03 08:59:18;;;;;;;3.72;1.80;;;;;;;23.01;55.58;101709.19;4953177;29;20467;-83
2022/07/03 09:01:46;;;;;;;5.10;2.30;;;;;;;22.97;53.37;101705.31;4948778;29;20031;-81
2022/07/03 09:04:15;;;;;;;3.60;2.13;;;;;;;23.01;53.35;101700.91;4936219;29;20027;-83
2022/07/03 09:06:42;;;;;;;3.78;2.33;;;;;;;23.11;54.92;101700.06;4949400;29;20543;-81
2022/07/03 09:09:08;;;;;;;5.60;2.70;;;;;;;23.06;55.03;101705.59;4954424;29;20102;-82
2022/07/03 09:11:36;;;;;;;6.00;2.58;;;;;;;23.16;54.60;101688.22;4927355;29;20020;-83
2022/07/03 09:14:06;;;;;;;5.47;2.63;;;;;;;23.46;55.28;101700.34;4927686;29;20027;-83
2022/07/03 09:16:31;;;;;;;4.03;2.50;;;;;;;23.47;54.84;101690.97;4941834;29;20031;-82
2022/07/03 09:18:57;;;;;;;2.75;2.00;;;;;;;23.52;53.80;101699.25;4944712;29;20427;-82
2022/07/03 09:21:24;;;;;;;2.72;1.98;;;;;;;23.34;53.58;101689.59;4939340;29;20044;-81
2022/07/03 09:23:49;;;;;;;6.68;2.30;;;;;;;23.49;52.54;101703.41;4947069;29;20035;-86
2022/07/03 09:26:17;;;;;;;3.13;1.90;;;;;;;23.48;51.37;101700.94;4946576;29;20087;-82
2022/07/03 09:28:51;;;;;;;4.45;1.80;;;;;;;23.59;53.79;101710.84;4941543;29;20071;-82
2022/07/03 09:31:20;;;;;;;10.75;2.85;;;;;;;23.45;50.45;101712.56;4933736;29;20071;-83
2022/07/03 09:33:55;;;;;;;3.95;2.00;;;;;;;23.74;52.42;101698.94;4936143;29;20039;-82
2022/07/03 09:36:44;;;;;;;5.00;2.42;;;;;;;23.88;52.38;101710.22;4937482;29;20019;-82
2022/07/03 09:39:39;;;;;;;3.60;2.40;;;;;;;23.91;52.92;101715.25;4944437;28;20035;-83
2022/07/03 09:42:06;;;;;;;3.38;2.67;;;;;;;23.40;51.81;101708.66;4930919;29;20034;-81
2022/07/03 09:44:33;;;;;;;5.22;2.60;;;;;;;23.71;51.52;101718.88;4935161;29;20059;-82
2022/07/03 09:47:15;;;;;;;5.75;2.88;;;;;;;23.74;52.65;101718.31;4957169;29;20032;-82
2022/07/03 09:49:55;;;;;;;3.97;2.50;;;;;;;23.96;53.04;101719.94;4943576;29;20023;-83
2022/07/03 09:52:34;;;;;;;4.97;2.88;;;;;;;23.96;54.28;101723.53;4951986;29;20023;-81
2022/07/03 09:55:08;;;;;;;3.72;2.50;;;;;;;23.63;53.23;101725.78;4946693;29;20023;-81
2022/07/03 09:57:35;;;;;;;5.55;2.25;;;;;;;23.33;52.73;101721.94;4940648;29;20083;-84
2022/07/03 10:00:19;;;;;;;4.93;2.90;;;;;;;23.43;54.36;101721.94;4942289;29;20464;-82
2022/07/03 10:03:06;;;;;;;5.22;3.28;;;;;;;23.40;55.15;101719.72;4937527;29;20130;-82
2022/07/03 10:05:34;;;;;;;5.45;3.30;;;;;;;23.08;53.86;101717.22;4940202;29;20043;-81
2022/07/03 10:08:01;;;;;;;5.03;3.53;;;;;;;23.41;55.91;101724.16;4950725;29;20455;-80
2022/07/03 10:10:46;;;;;;;5.45;3.20;;;;;;;23.57;54.46;101735.22;4955808;29;20486;-81
2022/07/03 10:13:13;;;;;;;4.72;2.80;;;;;;;23.45;51.87;101726.38;4948005;29;20556;-81
2022/07/03 10:15:40;;;;;;;4.82;3.30;;;;;;;23.07;52.00;101730.19;4939811;29;20118;-81
2022/07/03 10:18:08;;;;;;;4.10;2.70;;;;;;;23.29;52.83;101731.91;4938037;29;20032;-82
2022/07/03 10:20:41;;;;;;;4.22;2.92;;;;;;;23.53;52.83;101723.88;4940715;29;20031;-83
2022/07/03 10:23:07;;;;;;;4.72;2.85;;;;;;;23.33;52.15;101721.94;4958741;29;20042;-81
2022/07/03 10:25:33;;;;;;;7.32;3.13;;;;;;;23.46;54.62;101719.72;4948285;29;20504;-81
2022/07/03 10:28:00;;;;;;;4.80;3.13;;;;;;;23.92;53.39;101711.34;4955782;29;20062;-82
2022/07/03 10:30:26;;;;;;;6.32;3.35;;;;;;;23.98;52.23;101726.84;4934072;29;20448;-83
2022/07/03 10:32:53;;;;;;;8.73;3.60;;;;;;;24.11;52.63;101725.41;4958915;29;20110;-81
2022/07/03 10:35:41;;;;;;;3.97;3.50;;;;;;;23.85;51.25;101738.47;4950663;29;20103;-82
2022/07/03 10:38:37;;;;;;;4.68;3.03;;;;;;;23.94;52.71;101731.28;4938975;29;20019;-81
2022/07/03 10:46:57;;;;;;;5.53;2.30;;;;;;;23.12;52.59;101740.44;4945011;29;20444;-80
2022/07/03 10:49:23;;;;;;;3.42;2.25;;;;;;;22.73;51.88;101741.75;4944378;29;20043;-80
2022/07/03 10:52:00;;;;;;;3.88;2.35;;;;;;;22.87;52.52;101746.75;4954361;28;20082;-79
2022/07/03 10:54:33;;;;;;;2.55;1.60;;;;;;;22.95;51.33;101732.38;4957175;29;20035;-80
2022/07/03 10:56:59;;;;;;;5.43;2.28;;;;;;;22.87;50.66;101746.75;4939829;29;20569;-82
2022/07/03 10:59:45;;;;;;;4.45;2.25;;;;;;;22.68;52.30;101733.44;4957636;29;20376;-80
2022/07/03 11:02:32;;;;;;;3.53;2.20;;;;;;;22.72;52.24;101737.31;4957681;29;20472;-80
2022/07/03 11:05:03;;;;;;;2.50;2.05;;;;;;;22.47;53.23;101742.78;4952544;29;20046;-80
2022/07/03 11:07:33;;;;;;;2.72;2.20;;;;;;;22.40;52.04;101732.00;4956258;29;20083;-79
2022/07/03 11:10:14;;;;;;;3.42;2.17;;;;;;;22.38;53.02;101739.69;4954738;29;20043;-80
2022/07/03 11:12:58;;;;;;;6.18;2.50;;;;;;;22.49;53.24;101735.84;4956328;29;20075;-82
2022/07/03 11:15:33;;;;;;;3.47;1.27;;;;;;;22.82;50.30;101727.38;4951049;29;20031;-82
2022/07/03 11:18:07;;;;;;;3.88;2.15;;;;;;;22.81;50.70;101723.00;4956416;29;20115;-82
2022/07/03 11:20:34;;;;;;;4.80;2.08;;;;;;;22.91;50.77;101723.00;4945971;29;20023;-79
2022/07/03 11:23:27;;;;;;;5.25;2.00;;;;;;;23.08;49.76;101720.81;4927788;29;20086;-81
2022/07/03 11:25:55;;;;;;;3.20;1.73;;;;;;;23.20;52.83;101722.50;4950958;29;20038;-81
2022/07/03 11:28:33;;;;;;;4.70;1.92;;;;;;;23.03;51.49;101718.03;4954843;29;20464;-80
2022/07/03 11:31:11;;;;;;;4.68;1.98;;;;;;;23.01;51.25;101727.69;4954195;29;20412;-80
2022/07/03 11:33:51;;;;;;;3.35;1.60;;;;;;;23.14;51.22;101726.38;4955789;29;20174;-80
2022/07/03 11:36:16;;;;;;;3.10;1.60;;;;;;;22.95;48.03;101707.53;4951048;29;20095;-80
2022/07/03 11:38:44;;;;;;;3.85;1.80;;;;;;;23.30;50.95;101703.16;4949674;29;20019;-82
2022/07/03 11:41:11;;;;;;;4.78;1.60;;;;;;;23.38;49.61;101699.81;4956392;29;20031;-81
2022/07/03 11:43:37;;;;;;;3.85;1.30;;;;;;;23.49;46.69;101700.63;4956438;29;20097;-81
2022/07/03 11:46:04;;;;;;;3.90;1.90;;;;;;;23.46;49.75;101714.19;4948177;29;20111;-80